createdAt,value
2019-05-20T00:01:12.436Z,17.75
2019-05-20T00:03:40.912Z,17.82
2019-05-20T00:06:09.897Z,17.66
2019-05-20T00:08:38.777Z,17.58
2019-05-20T00:11:07.511Z,17.63
2019-05-20T00:13:36.003Z,17.64
2019-05-20T00:16:04.527Z,17.64
2019-05-20T00:18:33.084Z,17.35
2019-05-20T00:21:01.563Z,17.46
2019-05-20T00:23:30.005Z,17.36
2019-05-20T00:25:58.487Z,17.32
2019-05-20T00:28:26.928Z,17.34
2019-05-20T00:30:55.416Z,17.39
2019-05-20T00:33:23.851Z,17.38
2019-05-20T00:35:52.283Z,17.27
2019-05-20T00:38:20.793Z,17.23
2019-05-20T00:40:49.397Z,17.27
2019-05-20T00:43:17.841Z,17.32
2019-05-20T00:45:46.307Z,17.29
2019-05-20T00:48:14.772Z,17.18
2019-05-20T00:50:43.205Z,17.29
2019-05-20T00:53:11.644Z,17.22
2019-05-20T00:55:40.536Z,17.04
2019-05-20T00:58:08.973Z,17.17
2019-05-20T01:00:37.999Z,17.17
2019-05-20T01:03:06.452Z,17.09
2019-05-20T01:05:34.915Z,17.11
2019-05-20T01:08:03.383Z,17.04
2019-05-20T01:10:31.842Z,16.95
2019-05-20T01:13:00.324Z,16.93
2019-05-20T01:15:28.767Z,16.91
2019-05-20T01:17:57.209Z,16.90
2019-05-20T01:20:25.681Z,16.86
2019-05-20T01:22:54.126Z,16.81
2019-05-20T01:25:22.578Z,16.79
2019-05-20T01:27:51.065Z,16.72
2019-05-20T01:30:19.931Z,16.70
2019-05-20T01:32:48.418Z,16.68
2019-05-20T01:35:16.967Z,16.66
2019-05-20T01:37:45.405Z,16.61
2019-05-20T01:40:14.404Z,16.65
2019-05-20T01:42:42.843Z,16.81
2019-05-20T01:45:12.919Z,16.76
2019-05-20T01:47:41.373Z,16.72
2019-05-20T01:50:10.072Z,16.74
2019-05-20T01:52:38.557Z,16.67
2019-05-20T01:55:07.763Z,16.77
2019-05-20T01:57:36.249Z,16.89
2019-05-20T02:00:08.063Z,16.81
2019-05-20T02:02:36.525Z,16.87
2019-05-20T02:05:06.620Z,16.87
2019-05-20T02:07:35.131Z,16.90
2019-05-20T02:10:04.741Z,16.91
2019-05-20T02:12:33.191Z,16.89
2019-05-20T02:15:09.552Z,16.77
2019-05-20T02:17:37.986Z,16.73
2019-05-20T02:20:08.415Z,16.76
2019-05-20T02:22:36.846Z,16.72
2019-05-20T02:25:06.056Z,16.79
2019-05-20T02:27:34.499Z,16.65
2019-05-20T02:30:02.982Z,16.62
2019-05-20T02:32:31.424Z,16.56
2019-05-20T02:34:59.925Z,16.48
2019-05-20T02:37:28.415Z,16.49
2019-05-20T02:39:56.862Z,16.36
2019-05-20T02:42:25.317Z,16.43
2019-05-20T02:44:53.761Z,16.41
2019-05-20T02:47:22.221Z,16.38
2019-05-20T02:49:50.679Z,16.35
2019-05-20T02:52:19.151Z,16.47
2019-05-20T02:54:47.624Z,16.51
2019-05-20T02:57:16.101Z,16.37
2019-05-20T02:59:44.533Z,16.32
2019-05-20T03:02:13.013Z,16.35
2019-05-20T03:04:41.470Z,16.33
2019-05-20T03:07:09.900Z,16.28
2019-05-20T03:09:38.363Z,16.22
2019-05-20T03:12:06.836Z,16.24
2019-05-20T03:14:35.297Z,16.02
2019-05-20T03:17:03.756Z,16.14
2019-05-20T03:19:32.240Z,16.12
2019-05-20T03:22:00.692Z,16.22
2019-05-20T03:24:29.143Z,16.20
2019-05-20T03:26:57.601Z,16.22
2019-05-20T03:29:26.140Z,16.24
2019-05-20T03:31:54.603Z,16.21
2019-05-20T03:34:43.682Z,16.25
2019-05-20T03:36:53.237Z,16.32
2019-05-20T03:39:21.689Z,16.37
2019-05-20T03:41:50.160Z,16.10
2019-05-20T03:44:18.627Z,16.13
2019-05-20T03:46:47.069Z,16.20
2019-05-20T03:49:16.321Z,16.31
2019-05-20T03:51:44.831Z,16.25
2019-05-20T03:54:13.306Z,16.27
2019-05-20T03:56:41.771Z,16.25
2019-05-20T03:59:10.216Z,16.12
2019-05-20T04:01:38.667Z,16.34
2019-05-20T04:04:07.104Z,16.33
2019-05-20T04:06:35.586Z,16.30
2019-05-20T04:09:05.971Z,16.44
2019-05-20T04:11:34.447Z,16.54
2019-05-20T04:14:02.955Z,16.55
2019-05-20T04:16:31.393Z,16.51
2019-05-20T04:19:03.822Z,16.52
2019-05-20T04:21:32.460Z,16.71
2019-05-20T04:24:02.026Z,16.55
2019-05-20T04:26:30.743Z,16.65
2019-05-20T04:28:59.214Z,16.71
2019-05-20T04:31:27.746Z,16.74
2019-05-20T04:33:56.179Z,16.84
2019-05-20T04:36:24.643Z,16.98
2019-05-20T04:38:54.776Z,17.04
2019-05-20T04:41:23.216Z,17.04
2019-05-20T04:43:51.683Z,17.00
2019-05-20T04:46:20.156Z,16.93
2019-05-20T04:48:48.587Z,16.86
2019-05-20T04:51:17.084Z,16.94
2019-05-20T04:53:45.555Z,16.99
2019-05-20T04:56:14.002Z,17.13
2019-05-20T04:58:42.471Z,17.12
2019-05-20T05:01:10.956Z,16.84
2019-05-20T05:03:39.419Z,16.66
2019-05-20T05:06:07.870Z,16.83
2019-05-20T05:08:36.311Z,16.95
2019-05-20T05:11:04.783Z,17.05
2019-05-20T05:13:33.256Z,17.08
2019-05-20T05:16:01.771Z,16.99
2019-05-20T05:18:30.325Z,16.92
2019-05-20T05:20:58.797Z,17.22
2019-05-20T05:23:27.332Z,17.28
2019-05-20T05:25:55.848Z,17.30
2019-05-20T05:28:24.522Z,17.57
2019-05-20T05:30:53.487Z,17.42
2019-05-20T05:33:21.992Z,17.44
2019-05-20T05:35:53.561Z,17.75
2019-05-20T05:38:21.254Z,17.48
2019-05-20T05:40:49.750Z,17.69
2019-05-20T05:43:18.181Z,17.60
2019-05-20T05:45:46.688Z,17.44
2019-05-20T05:48:16.719Z,17.61
2019-05-20T05:50:45.204Z,17.95
2019-05-20T05:53:13.665Z,18.12
2019-05-20T05:55:42.125Z,17.99
2019-05-20T05:58:10.612Z,17.95
2019-05-20T06:00:39.047Z,18.12
2019-05-20T06:03:07.532Z,18.21
2019-05-20T06:05:35.986Z,18.25
2019-05-20T06:08:04.465Z,17.90
2019-05-20T06:10:35.773Z,18.06
2019-05-20T06:13:03.327Z,18.34
2019-05-20T06:15:31.710Z,18.49
2019-05-20T06:18:00.186Z,18.50
2019-05-20T06:20:28.651Z,18.67
2019-05-20T06:22:57.135Z,18.72
2019-05-20T06:25:25.574Z,18.98
2019-05-20T06:27:54.040Z,18.92
2019-05-20T06:30:25.582Z,18.74
2019-05-20T06:32:54.053Z,18.49
2019-05-20T06:35:22.537Z,18.83
2019-05-20T06:37:52.899Z,18.84
2019-05-20T06:40:22.342Z,18.95
2019-05-20T06:42:50.792Z,18.97
2019-05-20T06:45:19.326Z,19.18
2019-05-20T06:47:47.785Z,18.83
2019-05-20T06:50:16.471Z,19.00
2019-05-20T06:52:44.916Z,19.18
2019-05-20T06:55:13.628Z,19.14
2019-05-20T06:57:42.066Z,19.12
2019-05-20T07:00:12.383Z,19.10
2019-05-20T07:02:40.872Z,19.05
2019-05-20T07:05:09.937Z,19.09
2019-05-20T07:07:38.391Z,19.19
2019-05-20T07:10:08.020Z,19.41
2019-05-20T07:12:41.105Z,19.50
2019-05-20T07:15:09.208Z,19.66
2019-05-20T07:17:37.696Z,19.70
2019-05-20T07:20:06.858Z,19.79
2019-05-20T07:22:53.943Z,19.91
2019-05-20T07:25:08.281Z,20.00
2019-05-20T07:27:36.724Z,20.12
2019-05-20T07:30:06.799Z,20.02
2019-05-20T07:32:35.260Z,20.23
2019-05-20T07:35:04.975Z,19.95
2019-05-20T07:37:33.476Z,20.34
2019-05-20T07:40:01.992Z,20.49
2019-05-20T07:42:30.562Z,20.70
2019-05-20T07:44:59.114Z,20.78
2019-05-20T07:47:27.566Z,20.87
2019-05-20T07:49:56.369Z,21.12
2019-05-20T07:52:26.141Z,21.07
2019-05-20T07:54:56.143Z,21.22
2019-05-20T07:57:27.667Z,21.04
2019-05-20T07:59:56.656Z,21.38
2019-05-20T08:02:25.976Z,21.55
2019-05-20T08:04:54.445Z,21.36
2019-05-20T08:07:30.039Z,21.40
2019-05-20T08:09:53.146Z,21.62
2019-05-20T08:12:21.597Z,21.73
2019-05-20T08:14:50.116Z,21.63
2019-05-20T08:17:18.579Z,21.83
2019-05-20T08:19:47.030Z,21.91
2019-05-20T08:22:15.471Z,22.05
2019-05-20T08:24:43.970Z,22.04
2019-05-20T08:27:12.430Z,22.25
2019-05-20T08:29:40.898Z,22.17
2019-05-20T08:32:09.352Z,22.05
2019-05-20T08:34:39.068Z,22.34
2019-05-20T08:37:08.201Z,22.61
2019-05-20T08:39:36.708Z,22.71
2019-05-20T08:42:05.201Z,22.48
2019-05-20T08:44:33.772Z,22.77
2019-05-20T08:47:02.250Z,22.93
2019-05-20T08:49:30.850Z,22.89
2019-05-20T08:51:59.346Z,23.19
2019-05-20T08:54:27.813Z,23.11
2019-05-20T08:56:56.309Z,22.92
2019-05-20T08:59:24.786Z,22.98
2019-05-20T09:01:53.263Z,22.98
2019-05-20T09:04:21.701Z,23.01
2019-05-20T09:06:50.164Z,22.98
2019-05-20T09:09:18.698Z,23.20
2019-05-20T09:11:48.080Z,23.36
2019-05-20T09:14:16.696Z,23.58
2019-05-20T09:16:45.169Z,23.62
2019-05-20T09:19:13.663Z,23.33
2019-05-20T09:21:42.175Z,23.09
2019-05-20T09:24:10.608Z,23.59
2019-05-20T09:26:39.088Z,23.48
2019-05-20T09:29:11.286Z,23.54
2019-05-20T09:31:38.156Z,23.79
2019-05-20T09:34:06.620Z,23.77
2019-05-20T09:36:35.173Z,23.44
2019-05-20T09:39:05.127Z,23.62
2019-05-20T09:41:33.617Z,23.65
2019-05-20T09:44:02.065Z,23.85
2019-05-20T09:46:30.588Z,23.75
2019-05-20T09:48:59.035Z,23.77
2019-05-20T09:51:27.514Z,23.57
2019-05-20T09:53:55.986Z,23.74
2019-05-20T09:56:26.157Z,23.69
2019-05-20T09:58:54.572Z,24.06
2019-05-20T10:01:23.040Z,23.99
2019-05-20T10:03:51.479Z,24.02
2019-05-20T10:06:20.805Z,23.97
2019-05-20T10:08:49.256Z,24.14
2019-05-20T10:11:17.694Z,23.92
2019-05-20T10:13:46.153Z,24.04
2019-05-20T10:16:14.619Z,24.01
2019-05-20T10:18:43.050Z,24.10
2019-05-20T10:21:11.513Z,24.13
2019-05-20T10:23:39.997Z,24.30
2019-05-20T10:26:08.471Z,24.42
2019-05-20T10:28:42.006Z,24.35
2019-05-20T10:31:07.106Z,24.43
2019-05-20T10:33:37.090Z,24.53
2019-05-20T10:36:05.768Z,24.46
2019-05-20T10:38:34.233Z,24.39
2019-05-20T10:41:02.688Z,24.45
2019-05-20T10:43:31.147Z,24.65
2019-05-20T10:45:59.632Z,24.76
2019-05-20T10:48:28.067Z,24.36
2019-05-20T10:50:56.540Z,24.56
2019-05-20T10:53:28.281Z,24.67
2019-05-20T10:55:55.269Z,24.86
2019-05-20T10:58:23.723Z,24.73
2019-05-20T11:01:02.298Z,24.92
2019-05-20T11:03:22.439Z,24.84
2019-05-20T11:05:50.939Z,24.94
2019-05-20T11:08:19.459Z,25.10
2019-05-20T11:10:47.910Z,25.44
2019-05-20T11:13:16.355Z,25.01
2019-05-20T11:15:44.825Z,25.03
2019-05-20T11:18:13.260Z,24.79
2019-05-20T11:20:41.723Z,24.78
2019-05-20T11:23:10.159Z,24.70
2019-05-20T11:25:38.650Z,24.76
2019-05-20T11:28:07.057Z,25.27
2019-05-20T11:30:35.518Z,25.22
2019-05-20T11:33:04.029Z,25.53
2019-05-20T11:35:32.459Z,25.27
2019-05-20T11:38:00.916Z,25.22
2019-05-20T11:40:29.373Z,25.42
2019-05-20T11:42:57.824Z,25.28
2019-05-20T11:45:26.253Z,25.35
2019-05-20T11:47:54.733Z,25.34
2019-05-20T11:50:23.320Z,25.25
2019-05-20T11:52:51.750Z,25.42
2019-05-20T11:55:20.212Z,25.56
2019-05-20T11:57:48.661Z,25.36
2019-05-20T12:00:17.373Z,25.22
2019-05-20T12:02:45.832Z,25.29
2019-05-20T12:05:14.445Z,25.57
2019-05-20T12:07:42.887Z,25.53
2019-05-20T12:10:11.900Z,25.31
2019-05-20T12:12:40.341Z,24.92
2019-05-20T12:15:09.613Z,25.09
2019-05-20T12:17:38.063Z,25.18
2019-05-20T12:20:10.540Z,24.62
2019-05-20T12:22:38.582Z,25.02
2019-05-20T12:25:08.094Z,25.18
2019-05-20T12:27:36.580Z,25.49
2019-05-20T12:30:07.266Z,25.15
2019-05-20T12:32:35.702Z,24.95
2019-05-20T12:35:06.754Z,25.29
2019-05-20T12:37:35.221Z,25.05
2019-05-20T12:40:07.493Z,25.02
2019-05-20T12:42:35.353Z,25.51
2019-05-20T12:45:05.577Z,25.20
2019-05-20T12:47:34.019Z,25.18
2019-05-20T12:50:02.490Z,25.43
2019-05-20T12:52:30.910Z,25.42
2019-05-20T12:55:08.111Z,25.46
2019-05-20T12:57:29.614Z,25.53
2019-05-20T12:59:58.073Z,25.22
2019-05-20T13:02:26.546Z,25.70
2019-05-20T13:04:55.020Z,25.67
2019-05-20T13:07:25.042Z,25.62
2019-05-20T13:09:53.501Z,25.39
2019-05-20T13:12:21.933Z,25.64
2019-05-20T13:14:50.411Z,25.32
2019-05-20T13:17:18.854Z,24.87
2019-05-20T13:19:47.331Z,24.85
2019-05-20T13:22:15.833Z,24.83
2019-05-20T13:24:44.349Z,24.63
2019-05-20T13:27:12.810Z,24.41
2019-05-20T13:29:41.288Z,24.60
2019-05-20T13:32:09.760Z,24.62
2019-05-20T13:34:38.233Z,24.44
2019-05-20T13:37:06.670Z,24.41
2019-05-20T13:39:36.764Z,23.95
2019-05-20T13:42:05.193Z,24.03
2019-05-20T13:44:33.672Z,24.00
2019-05-20T13:47:02.199Z,23.83
2019-05-20T13:49:30.666Z,23.95
2019-05-20T13:51:59.126Z,23.78
2019-05-20T13:54:27.610Z,23.78
2019-05-20T13:56:56.058Z,23.87
2019-05-20T13:59:25.520Z,23.79
2019-05-20T14:01:53.962Z,23.61
2019-05-20T14:04:22.480Z,23.62
2019-05-20T14:06:50.913Z,23.65
2019-05-20T14:09:19.397Z,23.62
2019-05-20T14:11:47.864Z,23.34
2019-05-20T14:14:16.319Z,23.10
2019-05-20T14:16:44.906Z,22.90
2019-05-20T14:19:13.381Z,22.75
2019-05-20T14:21:41.864Z,22.62
2019-05-20T14:24:10.312Z,22.48
2019-05-20T14:26:38.821Z,22.40
2019-05-20T14:29:07.267Z,22.33
2019-05-20T14:31:35.696Z,22.25
2019-05-20T14:34:04.241Z,21.96
2019-05-20T14:36:40.516Z,21.78
2019-05-20T14:39:03.855Z,21.54
2019-05-20T14:41:32.313Z,21.26
2019-05-20T14:44:00.779Z,21.30
2019-05-20T14:46:29.274Z,21.22
2019-05-20T14:49:02.256Z,21.16
2019-05-20T14:51:28.016Z,21.07
2019-05-20T14:53:56.462Z,20.94
2019-05-20T14:56:24.945Z,20.90
2019-05-20T14:58:54.488Z,20.72
2019-05-20T15:01:23.602Z,20.67
2019-05-20T15:03:52.051Z,20.60
2019-05-20T15:06:20.524Z,20.45
2019-05-20T15:08:49.025Z,20.46
2019-05-20T15:11:17.512Z,20.45
2019-05-20T15:13:45.959Z,20.53
2019-05-20T15:16:14.429Z,20.41
2019-05-20T15:18:42.883Z,20.39
2019-05-20T15:21:11.338Z,20.46
2019-05-20T15:23:39.802Z,20.50
2019-05-20T15:26:08.269Z,20.58
2019-05-20T15:28:36.767Z,20.21
2019-05-20T15:31:05.560Z,19.95
2019-05-20T15:33:33.981Z,19.68
2019-05-20T15:36:02.492Z,19.08
2019-05-20T15:38:30.936Z,18.33
2019-05-20T15:40:59.378Z,17.62
2019-05-20T15:43:27.846Z,17.45
2019-05-20T15:45:56.314Z,17.53
2019-05-20T15:48:24.783Z,17.74
2019-05-20T15:50:53.247Z,17.93
2019-05-20T15:53:21.717Z,18.08
2019-05-20T15:55:50.181Z,17.96
2019-05-20T15:58:18.615Z,17.83
2019-05-20T16:00:47.094Z,17.94
2019-05-20T16:03:15.544Z,17.90
2019-05-20T16:05:43.997Z,17.79
2019-05-20T16:08:12.495Z,17.95
2019-05-20T16:10:40.956Z,17.86
2019-05-20T16:13:09.404Z,17.99
2019-05-20T16:15:37.867Z,18.04
2019-05-20T16:18:06.342Z,18.22
2019-05-20T16:20:34.803Z,18.18
2019-05-20T16:23:03.285Z,18.39
2019-05-20T16:25:31.732Z,18.48
2019-05-20T16:28:00.166Z,18.61
2019-05-20T16:30:28.633Z,18.69
2019-05-20T16:32:57.091Z,19.00
2019-05-20T16:35:25.565Z,19.44
2019-05-20T16:37:54.020Z,19.32
2019-05-20T16:40:22.632Z,19.81
2019-05-20T16:42:51.075Z,20.39
2019-05-20T16:45:19.657Z,20.48
2019-05-20T16:47:48.122Z,20.06
2019-05-20T16:50:18.401Z,19.79
2019-05-20T16:52:46.835Z,19.72
2019-05-20T16:55:15.689Z,19.64
2019-05-20T16:57:44.161Z,19.61
2019-05-20T17:00:29.862Z,19.63
2019-05-20T17:02:44.414Z,19.71
2019-05-20T17:05:13.090Z,19.72
2019-05-20T17:07:41.556Z,19.78
2019-05-20T17:10:10.473Z,19.80
2019-05-20T17:12:38.978Z,19.79
2019-05-20T17:15:07.889Z,19.61
2019-05-20T17:17:36.374Z,19.57
2019-05-20T17:20:06.295Z,19.48
2019-05-20T17:22:34.744Z,19.51
2019-05-20T17:25:03.320Z,19.59
2019-05-20T17:27:31.775Z,19.59
2019-05-20T17:30:00.247Z,19.50
2019-05-20T17:32:28.751Z,19.49
2019-05-20T17:34:57.205Z,19.60
2019-05-20T17:37:25.711Z,19.72
2019-05-20T17:39:54.172Z,19.77
2019-05-20T17:42:22.698Z,19.71
2019-05-20T17:44:51.124Z,19.59
2019-05-20T17:47:19.585Z,19.62
2019-05-20T17:49:48.039Z,19.39
2019-05-20T17:52:16.512Z,19.58
2019-05-20T17:54:44.989Z,19.57
2019-05-20T17:57:13.447Z,19.58
2019-05-20T17:59:41.893Z,19.40
2019-05-20T18:02:11.756Z,19.38
2019-05-20T18:04:40.476Z,19.24
2019-05-20T18:07:08.930Z,19.24
2019-05-20T18:09:39.018Z,19.02
2019-05-20T18:12:07.474Z,19.07
2019-05-20T18:14:35.983Z,19.05
2019-05-20T18:17:04.484Z,18.78
2019-05-20T18:19:32.966Z,18.48
2019-05-20T18:22:01.447Z,18.16
2019-05-20T18:24:29.891Z,18.01
2019-05-20T18:26:58.378Z,17.85
2019-05-20T18:29:26.840Z,17.85
2019-05-20T18:31:55.302Z,17.85
2019-05-20T18:34:23.793Z,17.88
2019-05-20T18:36:52.282Z,17.98
2019-05-20T18:39:20.738Z,17.87
2019-05-20T18:41:49.221Z,17.98
2019-05-20T18:44:17.738Z,17.95
2019-05-20T18:46:46.206Z,18.08
2019-05-20T18:49:14.695Z,18.10
2019-05-20T18:51:43.169Z,18.09
2019-05-20T18:54:11.624Z,18.08
2019-05-20T18:56:40.282Z,18.17
2019-05-20T18:59:08.724Z,18.19
2019-05-20T19:01:50.634Z,18.23
2019-05-20T19:04:07.379Z,18.18
2019-05-20T19:06:35.846Z,18.23
2019-05-20T19:09:05.590Z,18.12
2019-05-20T19:11:34.020Z,18.16
2019-05-20T19:14:02.507Z,18.21
2019-05-20T19:16:30.957Z,18.28
2019-05-20T19:18:59.446Z,18.14
2019-05-20T19:21:27.946Z,18.18
2019-05-20T19:23:56.388Z,18.13
2019-05-20T19:26:25.619Z,18.21
2019-05-20T19:28:54.367Z,18.24
2019-05-20T19:31:22.860Z,18.21
2019-05-20T19:33:51.344Z,18.13
2019-05-20T19:36:19.804Z,18.10
2019-05-20T19:38:48.308Z,18.09
2019-05-20T19:41:16.775Z,18.07
2019-05-20T19:43:45.224Z,17.80
2019-05-20T19:46:13.696Z,17.73
2019-05-20T19:48:42.143Z,17.73
2019-05-20T19:51:10.592Z,17.76
2019-05-20T19:53:39.049Z,17.71
2019-05-20T19:56:07.529Z,17.66
2019-05-20T19:58:37.651Z,17.64
2019-05-20T20:01:06.134Z,17.55
2019-05-20T20:03:34.577Z,17.40
2019-05-20T20:06:03.062Z,17.33
2019-05-20T20:08:31.540Z,17.28
2019-05-20T20:11:00.016Z,17.22
2019-05-20T20:13:28.452Z,17.27
2019-05-20T20:15:56.922Z,17.24
2019-05-20T20:18:25.396Z,17.27
2019-05-20T20:20:53.890Z,17.17
2019-05-20T20:23:22.337Z,17.17
2019-05-20T20:25:50.814Z,17.22
2019-05-20T20:28:19.287Z,17.26
2019-05-20T20:30:47.785Z,17.27
2019-05-20T20:33:16.250Z,17.20
2019-05-20T20:35:44.687Z,17.27
2019-05-20T20:38:13.151Z,17.23
2019-05-20T20:40:41.650Z,17.13
2019-05-20T20:43:10.112Z,17.22
2019-05-20T20:45:38.558Z,17.20
2019-05-20T20:48:07.022Z,17.17
2019-05-20T20:50:35.586Z,17.21
2019-05-20T20:53:04.105Z,17.27
2019-05-20T20:55:32.575Z,17.19
2019-05-20T20:58:01.515Z,17.21
2019-05-20T21:00:29.980Z,17.10
2019-05-20T21:02:58.418Z,17.08
2019-05-20T21:05:26.886Z,17.15
2019-05-20T21:07:55.346Z,17.01
2019-05-20T21:10:25.244Z,16.99
2019-05-20T21:12:53.751Z,16.97
2019-05-20T21:15:22.182Z,16.86
2019-05-20T21:17:50.676Z,16.80
2019-05-20T21:20:19.126Z,16.77
2019-05-20T21:22:47.621Z,16.76
2019-05-20T21:25:16.063Z,16.72
2019-05-20T21:27:44.508Z,16.69
2019-05-20T21:30:13.338Z,16.63
2019-05-20T21:32:41.793Z,16.57
2019-05-20T21:35:10.343Z,16.48
2019-05-20T21:37:39.070Z,16.41
2019-05-20T21:40:08.206Z,16.49
2019-05-20T21:42:36.626Z,16.50
2019-05-20T21:45:06.831Z,16.43
2019-05-20T21:47:35.280Z,16.49
2019-05-20T21:50:03.834Z,16.50
2019-05-20T21:52:32.281Z,16.48
2019-05-20T21:55:00.742Z,16.38
2019-05-20T21:57:29.215Z,16.38
2019-05-20T21:59:57.705Z,16.35
2019-05-20T22:02:26.714Z,16.32
2019-05-20T22:04:55.404Z,16.19
2019-05-20T22:07:23.882Z,16.15
2019-05-20T22:09:53.063Z,16.16
2019-05-20T22:12:21.472Z,16.12
2019-05-20T22:14:49.910Z,16.17
2019-05-20T22:17:18.386Z,16.15
2019-05-20T22:19:46.851Z,16.11
2019-05-20T22:22:19.394Z,16.01
2019-05-20T22:24:48.410Z,16.01
2019-05-20T22:27:16.857Z,15.91
2019-05-20T22:29:45.301Z,15.90
2019-05-20T22:32:13.764Z,15.97
2019-05-20T22:34:53.181Z,15.98
2019-05-20T22:37:12.469Z,15.99
2019-05-20T22:39:40.904Z,15.97
2019-05-20T22:42:09.381Z,16.02
2019-05-20T22:44:37.828Z,15.95
2019-05-20T22:47:06.318Z,16.02
2019-05-20T22:49:34.790Z,15.97
2019-05-20T22:52:03.256Z,15.95
2019-05-20T22:54:31.723Z,15.92
2019-05-20T22:57:00.183Z,15.92
2019-05-20T22:59:28.654Z,15.68
2019-05-20T23:01:57.092Z,15.65
2019-05-20T23:04:25.557Z,15.66
2019-05-20T23:06:54.007Z,15.66
2019-05-20T23:09:24.097Z,15.66
2019-05-20T23:11:52.565Z,15.60
2019-05-20T23:14:21.024Z,15.65
2019-05-20T23:16:49.488Z,15.55
2019-05-20T23:19:17.962Z,15.42
2019-05-20T23:21:46.401Z,15.52
2019-05-20T23:24:14.867Z,15.47
2019-05-20T23:26:43.347Z,15.58
2019-05-20T23:29:11.793Z,15.55
2019-05-20T23:31:40.263Z,15.58
2019-05-20T23:34:12.699Z,15.58
2019-05-20T23:36:38.919Z,15.56
2019-05-20T23:39:07.654Z,15.47
2019-05-20T23:41:36.110Z,15.57
2019-05-20T23:44:04.594Z,15.49
2019-05-20T23:46:33.048Z,15.60
2019-05-20T23:49:01.515Z,15.64
2019-05-20T23:51:29.991Z,15.56
2019-05-20T23:53:58.434Z,15.42
2019-05-20T23:56:26.890Z,15.47
2019-05-20T23:58:55.349Z,15.48
